S43 weather

Harvey Field
Snohomish, Washington, United States

Public forecast

Using degrees Fahrenheit for public forecast. Weather courtesy of forecast.io.

Closest aviation weather report (METAR) to Harvey Field

Closest report is Snohomish County (Paine Field) Airport, 7.1 nm (13.2 km) W. Retrieved 2020/05/30 05:53 UTC (28 minutes ago):

KPAE 300553Z AUTO 01009KT 10SM CLR 13/07 A2987 RMK AO2 SLP113 T01280067 10156 20122 56006

Closest aviation forecast (TAF) to Harvey Field

Closest forecast is Snohomish County (Paine Field) Airport, 7.1 nm (13.2 km) W. Retrieved 2020/05/30 06:22 UTC (0 seconds ago):

TAF KPAE 300520Z 3006/3106 36005KT P6SM SCT150 BKN250 FM301800 30008KT P6SM VCSH BKN060 OVC100 FM302300 34005KT P6SM -SHRA OVC040 FM310300 19008KT 5SM -SHRA BR OVC025